Nevada City, CA (95959)

5:56 AM PST on December 29, 2014 (GMT -0800)
Willow Valley Lodge | Change Station
CLOSE
Current Station
Personal Weather Station
Location: Nevada City, CA
Elevation: 2560 ft
Nearby Weather Stations
Active Advisory: Special Statement

Elev 2560 ft 39.27 °N, 121.01 °W | Updated 12 seconds ago

Clear
Clear
28.0 °F
Feels Like 28 °F
N
0.0
Wind Variable Wind from WSW
Gusts 0.0 mph

Today
High -- | Low -- °F
--% Chance of Precip.
Yesterday
High -- | Low -- °F
Precip. -- in
7:23 AM 4:49 PM
First Quarter, 59% visible
Pressure 30.15 in
Visibility 10.0 miles
Clouds Clear
Windchill 28 °F
Dew Point 26 °F
Humidity 90%
Rainfall 0.00 in
Snow Depth Not available.
UV 0.0 out of 12
Pollen 4.00 out of 12
Air Quality Not available.
Flu Activity Not available.
METAR KGOO 291335Z AUTO 00000KT 10SM CLR 03/M02 A3015 RMK AO1

More Conditions Fewer Conditions

Pressure 30.15 in
Visibility 10.0 miles
Clouds Clear
Windchill 28 °F
Dew Point 26 °F
Humidity 90%
Rainfall 0.00 in
Snow Depth Not available.
UV 0.0 out of 12
Pollen 4.00 out of 12
Air Quality Not available.
Flu Activity Not available.
METAR KGOO 291335Z AUTO 00000KT 10SM CLR 03/M02 A3015 RMK AO1

More Conditions Fewer Conditions

10-Day Weather Forecast

Almanac

Astronomy

Dec. 29, 2014 Rise Set
Actual Time
Civil Twilight
Nautical Twilight
Astronomical Twilight
Moon
Length of Visible Light
Length of Day
Tomorrow will be .
, % of the Moon is Illuminated

Today's Extremes

State Highs State Lows

Community

WunderPhotos

Upload Photos

1,781,586 photos uploaded!

WunderBlogs® & News

Nearby

Air Quality

  Air Quality AQ Index Pollutant
Not available.

Snow Depth

Station Depth Elevation

Earthquake Activity

City Distance Mag. Time & Date
Minimum magnitude displayed is 2.5.

Coastal Water Temperatures

Place Temperature

Nearby Weather Stations